createdAt,value
2022-09-28T00:01:19.626Z,9.60
2022-09-28T00:03:49.183Z,9.44
2022-09-28T00:06:19.808Z,9.42
2022-09-28T00:08:50.234Z,9.39
2022-09-28T00:11:20.861Z,9.56
2022-09-28T00:13:56.722Z,9.43
2022-09-28T00:16:31.581Z,9.38
2022-09-28T00:19:00.281Z,9.44
2022-09-28T00:21:33.456Z,9.47
2022-09-28T00:24:15.275Z,9.47
2022-09-28T00:26:52.055Z,9.46
2022-09-28T00:29:34.771Z,9.56
2022-09-28T00:32:05.901Z,9.62
2022-09-28T00:34:36.740Z,9.59
2022-09-28T00:37:06.529Z,9.59
2022-09-28T00:39:35.894Z,9.44
2022-09-28T00:42:11.139Z,9.53
2022-09-28T00:44:51.798Z,9.40
2022-09-28T00:47:34.890Z,9.60
2022-09-28T00:50:19.753Z,9.69
2022-09-28T00:53:04.820Z,9.76
2022-09-28T00:55:45.998Z,9.74
2022-09-28T00:58:20.749Z,9.77
2022-09-28T01:00:49.522Z,9.56
2022-09-28T01:03:17.752Z,9.66
2022-09-28T01:05:47.165Z,9.47
2022-09-28T01:08:17.590Z,9.52
2022-09-28T01:10:45.491Z,9.56
2022-09-28T01:13:15.405Z,9.59
2022-09-28T01:16:12.017Z,9.70
2022-09-28T01:18:46.742Z,9.70
2022-09-28T01:21:22.347Z,9.76
2022-09-28T01:24:21.765Z,9.66
2022-09-28T01:27:26.806Z,9.86
2022-09-28T01:30:06.182Z,9.86
2022-09-28T01:32:55.877Z,9.73
2022-09-28T01:35:32.285Z,9.64
2022-09-28T01:38:28.823Z,9.47
2022-09-28T01:41:00.517Z,9.52
2022-09-28T01:43:31.464Z,9.47
2022-09-28T01:46:13.898Z,9.50
2022-09-28T01:49:13.229Z,9.43
2022-09-28T01:51:46.675Z,9.46
2022-09-28T01:54:21.037Z,9.49
2022-09-28T01:57:05.088Z,9.46
2022-09-28T01:59:37.313Z,9.49
2022-09-28T02:02:11.292Z,9.50
2022-09-28T02:04:52.508Z,9.43
2022-09-28T02:07:32.455Z,9.39
2022-09-28T02:10:07.085Z,9.52
2022-09-28T02:12:44.220Z,9.46
2022-09-28T02:15:20.747Z,9.39
2022-09-28T02:17:49.429Z,9.47
2022-09-28T02:20:18.247Z,9.49
2022-09-28T02:22:55.923Z,9.53
2022-09-28T02:25:35.770Z,9.60
2022-09-28T02:28:08.405Z,9.35
2022-09-28T02:30:38.951Z,9.28
2022-09-28T02:33:31.455Z,9.31
2022-09-28T02:36:01.104Z,9.38
2022-09-28T02:38:32.035Z,9.50
2022-09-28T02:41:08.677Z,9.63
2022-09-28T02:44:08.043Z,9.56
2022-09-28T02:46:55.809Z,9.56
2022-09-28T02:49:38.872Z,9.28
2022-09-28T02:52:37.602Z,9.47
2022-09-28T02:55:36.220Z,9.33
2022-09-28T02:58:26.262Z,9.31
2022-09-28T03:01:07.501Z,9.39
2022-09-28T03:04:02.002Z,9.38
2022-09-28T03:06:45.969Z,9.40
2022-09-28T03:09:22.692Z,9.40
2022-09-28T03:11:59.692Z,9.50
2022-09-28T03:14:27.460Z,9.49
2022-09-28T03:16:57.874Z,9.49
2022-09-28T03:19:32.702Z,9.35
2022-09-28T03:22:01.864Z,9.22
2022-09-28T03:24:29.573Z,9.05
2022-09-28T03:26:58.251Z,9.36
2022-09-28T03:29:26.681Z,9.44
2022-09-28T03:32:00.246Z,9.64
2022-09-28T03:34:27.779Z,9.72
2022-09-28T03:36:56.155Z,9.60
2022-09-28T03:39:23.811Z,9.54
2022-09-28T03:41:51.367Z,9.43
2022-09-28T03:44:20.931Z,9.46
2022-09-28T03:46:49.303Z,9.43
2022-09-28T03:49:17.026Z,9.50
2022-09-28T03:51:44.787Z,9.59
2022-09-28T03:54:13.231Z,9.59
2022-09-28T03:56:41.553Z,9.46
2022-09-28T03:59:09.138Z,9.40
2022-09-28T04:01:38.070Z,9.36
2022-09-28T04:04:06.003Z,9.32
2022-09-28T04:06:33.645Z,9.16
2022-09-28T04:09:01.331Z,9.21
2022-09-28T04:11:47.492Z,9.18
2022-09-28T04:14:18.644Z,9.05
2022-09-28T04:16:48.078Z,9.02
2022-09-28T04:19:16.965Z,9.10
2022-09-28T04:21:48.512Z,9.01
2022-09-28T04:24:16.185Z,9.01
2022-09-28T04:26:44.199Z,9.05
2022-09-28T04:29:16.313Z,9.22
2022-09-28T04:32:06.064Z,9.26
2022-09-28T04:34:39.672Z,9.28
2022-09-28T04:37:09.759Z,9.15
2022-09-28T04:39:42.276Z,9.18
2022-09-28T04:42:13.231Z,9.28
2022-09-28T04:44:40.821Z,9.36
2022-09-28T04:47:10.849Z,9.36
2022-09-28T04:49:53.254Z,9.31
2022-09-28T04:52:27.435Z,9.49
2022-09-28T04:54:54.977Z,9.52
2022-09-28T04:57:25.135Z,9.39
2022-09-28T04:59:52.821Z,9.28
2022-09-28T05:02:20.468Z,9.36
2022-09-28T05:05:07.486Z,9.43
2022-09-28T05:07:46.416Z,9.23
2022-09-28T05:10:14.215Z,9.14
2022-09-28T05:12:42.203Z,9.15
2022-09-28T05:15:11.773Z,9.02
2022-09-28T05:17:39.560Z,8.88
2022-09-28T05:20:11.820Z,8.83
2022-09-28T05:22:42.267Z,9.00
2022-09-28T05:25:10.634Z,9.14
2022-09-28T05:28:07.912Z,9.23
2022-09-28T05:30:50.786Z,9.35
2022-09-28T05:33:41.463Z,9.46
2022-09-28T05:36:13.692Z,9.50
2022-09-28T05:38:43.347Z,9.62
2022-09-28T05:41:11.001Z,9.56
2022-09-28T05:43:40.117Z,9.44
2022-09-28T05:46:08.304Z,9.36
2022-09-28T05:48:39.620Z,9.50
2022-09-28T05:51:07.929Z,9.59
2022-09-28T05:53:36.150Z,9.54
2022-09-28T05:56:03.736Z,9.47
2022-09-28T05:58:34.745Z,9.43
2022-09-28T06:01:02.752Z,9.57
2022-09-28T06:03:31.390Z,9.56
2022-09-28T06:06:02.645Z,9.67
2022-09-28T06:08:34.932Z,9.80
2022-09-28T06:11:27.015Z,9.73
2022-09-28T06:13:57.723Z,9.79
2022-09-28T06:16:28.851Z,9.83
2022-09-28T06:18:56.759Z,9.84
2022-09-28T06:21:42.880Z,9.81
2022-09-28T06:24:10.684Z,9.91
2022-09-28T06:26:38.653Z,9.86
2022-09-28T06:29:07.959Z,10.07
2022-09-28T06:31:36.087Z,10.12
2022-09-28T06:34:03.685Z,10.10
2022-09-28T06:36:31.474Z,10.17
2022-09-28T06:38:59.481Z,10.15
2022-09-28T06:41:27.815Z,10.05
2022-09-28T06:44:02.172Z,10.05
2022-09-28T06:46:48.227Z,9.80
2022-09-28T06:49:46.215Z,10.10
2022-09-28T06:52:34.456Z,10.04
2022-09-28T06:55:30.646Z,10.02
2022-09-28T06:58:04.987Z,10.07
2022-09-28T07:00:37.665Z,10.02
2022-09-28T07:03:08.348Z,10.20
2022-09-28T07:05:59.442Z,10.24
2022-09-28T07:08:40.146Z,10.29
2022-09-28T07:11:27.584Z,10.37
2022-09-28T07:14:24.564Z,10.20
2022-09-28T07:17:12.424Z,10.28
2022-09-28T07:19:41.573Z,10.17
2022-09-28T07:22:18.398Z,10.37
2022-09-28T07:24:48.988Z,10.21
2022-09-28T07:27:37.353Z,10.48
2022-09-28T07:30:37.871Z,10.29
2022-09-28T07:33:17.331Z,10.44
2022-09-28T07:35:56.742Z,10.69
2022-09-28T07:38:28.638Z,10.99
2022-09-28T07:41:14.003Z,11.03
2022-09-28T07:43:46.799Z,10.96
2022-09-28T07:46:14.938Z,10.76
2022-09-28T07:48:51.808Z,10.90
2022-09-28T07:51:35.153Z,11.20
2022-09-28T07:54:23.770Z,11.55
2022-09-28T07:57:10.119Z,12.19
2022-09-28T08:00:02.657Z,12.58
2022-09-28T08:02:44.003Z,12.99
2022-09-28T08:05:18.899Z,13.98
2022-09-28T08:07:46.512Z,15.41
2022-09-28T08:10:14.757Z,16.34
2022-09-28T08:12:48.445Z,15.45
2022-09-28T08:15:39.162Z,14.18
2022-09-28T08:18:20.753Z,13.66
2022-09-28T08:21:10.472Z,13.82
2022-09-28T08:23:39.094Z,15.48
2022-09-28T08:26:12.098Z,14.84
2022-09-28T08:28:43.569Z,14.04
2022-09-28T08:31:31.225Z,14.60
2022-09-28T08:34:22.753Z,14.38
2022-09-28T08:37:09.482Z,14.38
2022-09-28T08:39:56.032Z,13.78
2022-09-28T08:42:43.458Z,13.19
2022-09-28T08:45:20.102Z,12.48
2022-09-28T08:48:52.267Z,12.41
2022-09-28T08:51:57.379Z,12.51
2022-09-28T08:54:59.167Z,12.33
2022-09-28T08:58:01.276Z,12.20
2022-09-28T09:00:51.731Z,12.32
2022-09-28T09:03:36.133Z,12.60
2022-09-28T09:06:34.637Z,12.81
2022-09-28T09:09:45.480Z,13.19
2022-09-28T09:12:39.356Z,15.66
2022-09-28T09:15:40.414Z,16.37
2022-09-28T09:18:37.300Z,16.64
2022-09-28T09:21:43.102Z,17.46
2022-09-28T09:24:21.617Z,18.12
2022-09-28T09:27:05.173Z,18.49
2022-09-28T09:29:55.081Z,18.87
2022-09-28T09:32:46.254Z,18.02
2022-09-28T09:35:23.119Z,17.54
2022-09-28T09:38:49.195Z,19.01
2022-09-28T09:42:00.426Z,18.92
2022-09-28T09:45:14.413Z,17.91
2022-09-28T09:48:36.132Z,17.96
2022-09-28T09:51:45.561Z,16.38
2022-09-28T09:54:39.342Z,16.55
2022-09-28T09:57:34.191Z,16.28
2022-09-28T10:00:17.466Z,16.11
2022-09-28T10:03:05.070Z,15.59
2022-09-28T10:05:40.718Z,15.67
2022-09-28T10:08:09.523Z,15.89
2022-09-28T10:10:49.630Z,16.10
2022-09-28T10:13:19.806Z,16.04
2022-09-28T10:15:49.018Z,17.26
2022-09-28T10:18:30.890Z,17.98
2022-09-28T10:21:21.678Z,17.78
2022-09-28T10:24:02.841Z,16.75
2022-09-28T10:26:41.703Z,17.68
2022-09-28T10:29:26.415Z,18.74
2022-09-28T10:31:55.679Z,19.50
2022-09-28T10:34:31.061Z,19.16
2022-09-28T10:37:11.894Z,18.61
2022-09-28T10:40:30.516Z,20.04
2022-09-28T10:43:21.585Z,20.55
2022-09-28T10:46:06.811Z,20.92
2022-09-28T10:48:51.112Z,18.40
2022-09-28T10:51:20.749Z,17.89
2022-09-28T10:54:02.286Z,16.96
2022-09-28T10:56:52.347Z,16.16
2022-09-28T10:59:31.050Z,17.03
2022-09-28T11:02:36.143Z,18.25
2022-09-28T11:05:22.310Z,18.29
2022-09-28T11:07:52.748Z,17.16
2022-09-28T11:10:31.604Z,16.20
2022-09-28T11:13:10.685Z,16.00
2022-09-28T11:15:44.480Z,16.03
2022-09-28T11:18:31.640Z,16.27
2022-09-28T11:21:16.729Z,17.24
2022-09-28T11:24:08.035Z,17.38
2022-09-28T11:26:44.387Z,16.58
2022-09-28T11:29:24.878Z,15.93
2022-09-28T11:32:15.878Z,15.73
2022-09-28T11:35:03.171Z,15.51
2022-09-28T11:37:44.749Z,15.35
2022-09-28T11:40:23.209Z,15.38
2022-09-28T11:43:12.262Z,15.35
2022-09-28T11:45:50.641Z,15.10
2022-09-28T11:48:55.260Z,15.04
2022-09-28T11:51:30.616Z,15.81
2022-09-28T11:54:21.092Z,16.16
2022-09-28T11:56:51.644Z,16.32
2022-09-28T11:59:27.691Z,15.97
2022-09-28T12:02:29.766Z,15.97
2022-09-28T12:05:20.913Z,15.96
2022-09-28T12:07:56.490Z,15.89
2022-09-28T12:11:26.629Z,15.34
2022-09-28T12:14:20.809Z,15.48
2022-09-28T12:17:08.481Z,15.78
2022-09-28T12:19:58.099Z,15.86
2022-09-28T12:22:34.837Z,15.56
2022-09-28T12:25:10.279Z,15.41
2022-09-28T12:27:51.448Z,15.36
2022-09-28T12:30:26.990Z,15.32
2022-09-28T12:33:07.075Z,15.31
2022-09-28T12:35:53.069Z,15.07
2022-09-28T12:38:38.992Z,14.79
2022-09-28T12:41:34.932Z,14.96
2022-09-28T12:44:05.959Z,14.81
2022-09-28T12:47:13.198Z,14.53
2022-09-28T12:53:32.796Z,14.56
2022-09-28T12:56:21.694Z,14.77
2022-09-28T12:58:50.342Z,14.86
2022-09-28T13:01:40.000Z,15.10
2022-09-28T13:04:22.693Z,15.12
2022-09-28T13:07:30.735Z,15.31
2022-09-28T13:10:20.408Z,15.24
2022-09-28T13:13:00.942Z,15.10
2022-09-28T13:15:37.619Z,15.14
2022-09-28T13:18:22.019Z,15.27
2022-09-28T13:20:49.757Z,15.62
2022-09-28T13:23:29.753Z,15.85
2022-09-28T13:26:11.015Z,16.02
2022-09-28T13:28:42.302Z,16.16
2022-09-28T13:31:13.151Z,16.16
2022-09-28T13:33:44.388Z,15.65
2022-09-28T13:36:33.213Z,15.45
2022-09-28T13:39:01.667Z,15.65
2022-09-28T13:41:36.246Z,15.53
2022-09-28T13:44:35.135Z,15.32
2022-09-28T13:47:11.683Z,15.10
2022-09-28T13:50:03.311Z,14.88
2022-09-28T13:52:56.955Z,14.76
2022-09-28T13:55:49.185Z,14.67
2022-09-28T13:58:26.397Z,14.79
2022-09-28T14:01:11.655Z,14.84
2022-09-28T14:04:13.565Z,15.04
2022-09-28T14:07:08.413Z,15.01
2022-09-28T14:09:48.696Z,14.93
2022-09-28T14:12:53.016Z,15.12
2022-09-28T14:15:40.067Z,15.27
2022-09-28T14:18:21.550Z,15.14
2022-09-28T14:21:17.542Z,15.12
2022-09-28T14:24:06.638Z,14.96
2022-09-28T14:26:46.734Z,14.55
2022-09-28T14:29:28.780Z,14.33
2022-09-28T14:32:08.177Z,13.49
2022-09-28T14:34:42.074Z,13.38
2022-09-28T14:37:48.966Z,13.24
2022-09-28T14:40:50.041Z,13.03
2022-09-28T14:43:25.054Z,12.98
2022-09-28T14:46:15.804Z,12.71
2022-09-28T14:48:51.106Z,12.29
2022-09-28T14:51:30.311Z,12.09
2022-09-28T14:54:13.033Z,12.02
2022-09-28T14:57:08.213Z,12.13
2022-09-28T14:59:43.568Z,12.26
2022-09-28T15:02:23.339Z,12.30
2022-09-28T15:05:13.288Z,12.34
2022-09-28T15:07:50.750Z,12.51
2022-09-28T15:10:49.967Z,12.60
2022-09-28T15:13:30.091Z,12.58
2022-09-28T15:16:09.980Z,12.81
2022-09-28T15:19:05.011Z,12.85
2022-09-28T15:21:39.174Z,12.84
2022-09-28T15:24:33.658Z,13.06
2022-09-28T15:27:11.458Z,13.23
2022-09-28T15:29:41.069Z,13.36
2022-09-28T15:32:25.849Z,13.61
2022-09-28T15:34:56.872Z,13.61
2022-09-28T15:37:26.494Z,13.51
2022-09-28T15:39:57.475Z,13.63
2022-09-28T15:42:26.472Z,13.74
2022-09-28T15:45:14.093Z,13.75
2022-09-28T15:47:44.890Z,13.77
2022-09-28T15:50:30.212Z,13.73
2022-09-28T15:53:04.830Z,13.87
2022-09-28T15:55:44.741Z,13.81
2022-09-28T15:58:19.405Z,13.80
2022-09-28T16:00:50.142Z,13.54
2022-09-28T16:03:17.628Z,13.29
2022-09-28T16:06:00.500Z,12.93
2022-09-28T16:08:42.719Z,13.01
2022-09-28T16:11:16.459Z,12.96
2022-09-28T16:13:56.489Z,12.92
2022-09-28T16:16:30.826Z,13.03
2022-09-28T16:19:01.401Z,12.98
2022-09-28T16:21:45.549Z,12.74
2022-09-28T16:24:23.259Z,12.68
2022-09-28T16:26:58.881Z,12.77
2022-09-28T16:29:39.835Z,12.81
2022-09-28T16:32:26.350Z,12.82
2022-09-28T16:35:18.830Z,12.81
2022-09-28T16:37:48.762Z,12.89
2022-09-28T16:40:16.585Z,12.89
2022-09-28T16:42:49.034Z,13.02
2022-09-28T16:45:23.797Z,12.96
2022-09-28T16:47:57.926Z,13.02
2022-09-28T16:50:26.502Z,13.16
2022-09-28T16:53:19.865Z,13.24
2022-09-28T16:55:50.035Z,13.27
2022-09-28T16:58:18.621Z,13.26
2022-09-28T17:00:46.182Z,13.29
2022-09-28T17:03:18.394Z,13.33
2022-09-28T17:05:48.268Z,13.16
2022-09-28T17:08:18.781Z,13.20
2022-09-28T17:11:17.725Z,13.13
2022-09-28T17:13:47.467Z,13.16
2022-09-28T17:19:25.057Z,13.20
2022-09-28T17:21:54.211Z,13.23
2022-09-28T17:24:22.014Z,13.26
2022-09-28T17:26:51.709Z,13.22
2022-09-28T17:29:20.174Z,13.18
2022-09-28T17:31:48.343Z,13.18
2022-09-28T17:34:16.732Z,13.09
2022-09-28T17:36:45.298Z,13.02
2022-09-28T17:39:18.618Z,12.98
2022-09-28T17:41:46.894Z,13.01
2022-09-28T17:44:16.243Z,13.02
2022-09-28T17:46:48.582Z,12.74
2022-09-28T17:49:17.277Z,12.34
2022-09-28T17:51:44.989Z,12.41
2022-09-28T17:54:19.894Z,12.47
2022-09-28T17:56:47.862Z,12.48
2022-09-28T17:59:18.907Z,12.36
2022-09-28T18:01:48.399Z,12.32
2022-09-28T18:04:39.798Z,12.29
2022-09-28T18:07:04.931Z,12.26
2022-09-28T18:09:32.486Z,12.30
2022-09-28T18:12:03.934Z,12.26
2022-09-28T18:14:31.783Z,12.29
2022-09-28T18:16:59.314Z,12.19
2022-09-28T18:19:31.175Z,11.99
2022-09-28T18:21:59.957Z,11.82
2022-09-28T18:24:27.585Z,11.82
2022-09-28T18:26:55.196Z,11.47
2022-09-28T18:29:22.808Z,11.32
2022-09-28T18:31:50.589Z,11.58
2022-09-28T18:34:18.303Z,11.68
2022-09-28T18:36:46.532Z,11.68
2022-09-28T18:39:14.132Z,11.75
2022-09-28T18:41:42.817Z,11.71
2022-09-28T18:44:10.838Z,11.74
2022-09-28T18:46:38.536Z,11.75
2022-09-28T18:49:06.554Z,11.85
2022-09-28T18:51:34.847Z,11.97
2022-09-28T18:54:07.219Z,12.03
2022-09-28T18:56:38.782Z,11.85
2022-09-28T18:59:12.351Z,11.90
2022-09-28T19:01:42.083Z,11.97
2022-09-28T19:04:11.321Z,11.97
2022-09-28T19:06:42.910Z,12.00
2022-09-28T19:09:11.201Z,12.05
2022-09-28T19:11:38.857Z,12.07
2022-09-28T19:14:17.084Z,12.07
2022-09-28T19:16:46.073Z,12.10
2022-09-28T19:19:18.630Z,12.12
2022-09-28T19:21:47.701Z,12.13
2022-09-28T19:24:18.623Z,12.03
2022-09-28T19:26:47.065Z,12.03
2022-09-28T19:29:15.851Z,12.02
2022-09-28T19:32:06.978Z,12.05
2022-09-28T19:34:34.801Z,12.07
2022-09-28T19:37:03.939Z,12.07
2022-09-28T19:39:33.003Z,12.13
2022-09-28T19:42:01.234Z,11.90
2022-09-28T19:44:31.250Z,11.57
2022-09-28T19:47:04.879Z,11.52
2022-09-28T19:49:33.108Z,11.65
2022-09-28T19:52:16.948Z,11.72
2022-09-28T19:54:57.966Z,11.81
2022-09-28T19:57:30.773Z,11.92
2022-09-28T20:00:03.258Z,11.97
2022-09-28T20:02:34.927Z,11.99
2022-09-28T20:05:03.136Z,12.03
2022-09-28T20:07:33.197Z,12.00
2022-09-28T20:10:01.167Z,12.03
2022-09-28T20:12:28.921Z,12.02
2022-09-28T20:14:56.458Z,11.93
2022-09-28T20:17:26.552Z,11.89
2022-09-28T20:19:54.179Z,11.83
2022-09-28T20:22:21.735Z,11.79
2022-09-28T20:24:49.336Z,11.72
2022-09-28T20:27:16.898Z,11.61
2022-09-28T20:29:44.464Z,11.54
2022-09-28T20:32:12.206Z,11.47
2022-09-28T20:34:39.816Z,11.52
2022-09-28T20:37:07.566Z,11.47
2022-09-28T20:39:42.755Z,11.45
2022-09-28T20:42:12.810Z,11.38
2022-09-28T20:44:40.403Z,11.37
2022-09-28T20:47:08.171Z,11.32
2022-09-28T20:49:36.557Z,11.27
2022-09-28T20:52:04.058Z,11.30
2022-09-28T20:54:32.644Z,11.20
2022-09-28T20:57:01.544Z,11.13
2022-09-28T20:59:29.106Z,11.10
2022-09-28T21:01:56.911Z,10.99
2022-09-28T21:04:25.115Z,11.03
2022-09-28T21:06:53.206Z,11.00
2022-09-28T21:09:20.730Z,11.03
2022-09-28T21:11:48.641Z,10.97
2022-09-28T21:14:16.192Z,10.95
2022-09-28T21:16:43.774Z,10.99
2022-09-28T21:19:11.409Z,10.96
2022-09-28T21:21:39.221Z,10.83
2022-09-28T21:24:09.867Z,10.77
2022-09-28T21:26:37.998Z,10.73
2022-09-28T21:29:11.113Z,10.79
2022-09-28T21:31:47.584Z,10.81
2022-09-28T21:34:20.032Z,10.70
2022-09-28T21:36:52.578Z,10.68
2022-09-28T21:39:20.666Z,10.69
2022-09-28T21:41:48.280Z,10.69
2022-09-28T21:44:16.199Z,10.68
2022-09-28T21:46:43.850Z,10.59
2022-09-28T21:49:12.592Z,10.48
2022-09-28T21:51:40.291Z,10.41
2022-09-28T21:54:08.184Z,10.42
2022-09-28T21:56:36.255Z,10.44
2022-09-28T21:59:03.848Z,10.41
2022-09-28T22:01:31.797Z,10.45
2022-09-28T22:04:00.114Z,10.32
2022-09-28T22:06:28.349Z,10.42
2022-09-28T22:08:56.707Z,10.34
2022-09-28T22:11:27.025Z,10.39
2022-09-28T22:13:59.531Z,10.28
2022-09-28T22:16:30.050Z,10.22
2022-09-28T22:18:58.526Z,10.20
2022-09-28T22:21:32.777Z,10.18
2022-09-28T22:24:02.259Z,10.18
2022-09-28T22:26:31.796Z,10.14
2022-09-28T22:29:02.590Z,10.20
2022-09-28T22:31:33.012Z,10.17
2022-09-28T22:34:01.527Z,10.12
2022-09-28T22:36:29.879Z,10.07
2022-09-28T22:38:58.578Z,10.07
2022-09-28T22:41:26.766Z,10.02
2022-09-28T22:43:55.729Z,9.95
2022-09-28T22:46:29.443Z,9.95
2022-09-28T22:48:59.669Z,9.97
2022-09-28T22:51:29.625Z,9.93
2022-09-28T22:53:57.585Z,9.91
2022-09-28T22:56:26.772Z,9.93
2022-09-28T22:58:54.914Z,9.90
2022-09-28T23:01:29.204Z,9.87
2022-09-28T23:03:57.964Z,9.87
2022-09-28T23:06:29.028Z,9.86
2022-09-28T23:08:57.147Z,9.90
2022-09-28T23:11:28.564Z,9.86
2022-09-28T23:14:00.500Z,9.74
2022-09-28T23:16:28.402Z,9.77
2022-09-28T23:18:57.136Z,9.53
2022-09-28T23:21:27.741Z,9.57
2022-09-28T23:23:58.393Z,9.64
2022-09-28T23:26:30.205Z,9.64
2022-09-28T23:28:59.493Z,9.70
2022-09-28T23:31:30.143Z,9.57
2022-09-28T23:34:03.521Z,9.59
2022-09-28T23:36:31.875Z,9.62
2022-09-28T23:39:00.116Z,9.67
2022-09-28T23:41:28.270Z,9.66
2022-09-28T23:43:55.831Z,9.60
2022-09-28T23:46:23.508Z,9.72
2022-09-28T23:48:51.676Z,9.74
2022-09-28T23:51:19.339Z,9.67
2022-09-28T23:53:47.412Z,9.67
2022-09-28T23:56:15.087Z,9.73
2022-09-28T23:58:42.942Z,9.64
